createdAt,value
2023-03-22T00:00:20.502Z,72.10
2023-03-22T00:03:16.360Z,77.22
2023-03-22T00:06:02.802Z,75.35
2023-03-22T00:08:40.441Z,69.60
2023-03-22T00:11:27.125Z,63.87
2023-03-22T00:14:12.280Z,62.15
2023-03-22T00:16:53.456Z,60.22
2023-03-22T00:19:37.234Z,67.95
2023-03-22T00:22:18.410Z,60.25
2023-03-22T00:24:59.114Z,58.28
2023-03-22T00:27:42.911Z,53.15
2023-03-22T00:30:21.425Z,62.45
2023-03-22T00:33:06.111Z,60.97
2023-03-22T00:38:47.085Z,54.95
2023-03-22T00:41:36.749Z,67.40
2023-03-22T00:44:17.681Z,61.55
2023-03-22T00:46:59.270Z,87.68
2023-03-22T00:49:45.877Z,72.00
2023-03-22T00:55:08.047Z,57.58
2023-03-22T00:57:50.516Z,57.40
2023-03-22T01:00:34.078Z,67.68
2023-03-22T01:03:18.964Z,57.33
2023-03-22T01:06:03.028Z,48.78
2023-03-22T01:08:47.486Z,45.25
2023-03-22T01:11:39.753Z,45.45
2023-03-22T01:14:24.076Z,49.22
2023-03-22T01:17:16.369Z,50.20
2023-03-22T01:19:58.402Z,72.97
2023-03-22T01:22:42.232Z,107.30
2023-03-22T01:28:06.888Z,95.40
2023-03-22T01:30:48.179Z,93.20
2023-03-22T01:33:32.117Z,100.20
2023-03-22T01:36:18.731Z,88.82
2023-03-22T01:38:55.735Z,78.03
2023-03-22T01:41:45.028Z,81.10
2023-03-22T01:44:32.966Z,101.82
2023-03-22T01:47:17.160Z,104.60
2023-03-22T01:50:03.034Z,105.20
2023-03-22T01:52:52.760Z,101.78
2023-03-22T01:55:36.980Z,84.93
2023-03-22T01:58:24.873Z,77.38
2023-03-22T02:01:16.633Z,73.45
2023-03-22T02:04:10.934Z,69.00
2023-03-22T02:07:00.080Z,76.40
2023-03-22T02:09:50.170Z,79.38
2023-03-22T02:12:43.908Z,90.18
2023-03-22T02:16:16.845Z,129.60
2023-03-22T02:20:12.283Z,130.07
2023-03-22T02:23:17.494Z,123.90
2023-03-22T02:26:29.427Z,126.75
2023-03-22T02:29:12.817Z,156.65
2023-03-22T02:32:19.551Z,168.60
2023-03-22T02:35:01.087Z,144.55
2023-03-22T02:37:47.789Z,142.13
2023-03-22T02:40:41.863Z,122.80
2023-03-22T02:46:28.961Z,129.23
2023-03-22T02:49:28.496Z,123.80
2023-03-22T02:52:33.645Z,116.82
2023-03-22T02:55:22.104Z,106.43
2023-03-22T02:58:32.330Z,118.45
2023-03-22T03:01:20.187Z,112.57
2023-03-22T03:03:59.390Z,104.00
2023-03-22T03:06:46.395Z,112.72
2023-03-22T03:09:30.538Z,108.63
2023-03-22T03:14:42.306Z,98.43
2023-03-22T03:17:56.442Z,107.75
2023-03-22T03:20:49.996Z,103.15
2023-03-22T03:23:46.930Z,110.07
2023-03-22T03:26:33.392Z,103.10
2023-03-22T03:29:41.548Z,123.53
2023-03-22T03:32:46.318Z,114.20
2023-03-22T03:35:48.422Z,106.38
2023-03-22T03:38:31.151Z,100.25
2023-03-22T03:41:26.976Z,92.63
2023-03-22T03:44:07.719Z,108.55
2023-03-22T03:46:41.830Z,96.60
2023-03-22T03:49:27.468Z,87.15
2023-03-22T03:52:06.850Z,80.18
2023-03-22T03:54:48.915Z,88.75
2023-03-22T03:57:31.437Z,88.18
2023-03-22T04:00:15.138Z,102.15
2023-03-22T04:03:18.565Z,100.50
2023-03-22T04:06:28.928Z,121.68
2023-03-22T04:09:18.292Z,117.88
2023-03-22T04:12:00.007Z,128.27
2023-03-22T04:14:46.535Z,129.23
2023-03-22T04:17:38.449Z,113.22
2023-03-22T04:20:22.216Z,105.15
2023-03-22T04:23:06.602Z,104.88
2023-03-22T04:25:50.314Z,88.55
2023-03-22T04:28:43.341Z,79.72
2023-03-22T04:31:35.747Z,78.68
2023-03-22T04:34:36.209Z,85.00
2023-03-22T04:37:20.248Z,62.83
2023-03-22T04:40:20.588Z,64.82
2023-03-22T04:43:15.763Z,57.38
2023-03-22T04:46:05.504Z,45.55
2023-03-22T04:48:53.903Z,48.92
2023-03-22T04:51:39.347Z,52.08
2023-03-22T04:54:46.495Z,53.70
2023-03-22T04:57:38.254Z,53.67
2023-03-22T05:00:19.971Z,54.53
2023-03-22T05:03:02.014Z,74.47
2023-03-22T05:06:09.042Z,79.72
2023-03-22T05:08:59.017Z,105.47
2023-03-22T05:11:37.742Z,100.97
2023-03-22T05:14:38.089Z,82.95
2023-03-22T05:17:24.398Z,69.25
2023-03-22T05:20:11.269Z,61.80
2023-03-22T05:23:12.733Z,62.58
2023-03-22T05:25:58.360Z,56.33
2023-03-22T05:28:49.580Z,65.22
2023-03-22T05:31:40.046Z,68.90
2023-03-22T05:34:35.424Z,64.72
2023-03-22T05:37:26.336Z,66.35
2023-03-22T05:40:10.374Z,66.22
2023-03-22T05:43:02.945Z,74.40
2023-03-22T05:45:49.325Z,80.38
2023-03-22T05:48:46.023Z,101.50
2023-03-22T05:51:30.797Z,117.50
2023-03-22T05:57:11.632Z,142.68
2023-03-22T05:59:54.206Z,131.18
2023-03-22T06:02:38.585Z,102.35
2023-03-22T06:05:27.863Z,108.15
2023-03-22T06:08:07.468Z,100.47
2023-03-22T06:10:47.350Z,89.60
2023-03-22T06:13:35.195Z,80.78
2023-03-22T06:16:15.783Z,68.15
2023-03-22T06:19:00.590Z,48.72
2023-03-22T06:21:53.420Z,42.60
2023-03-22T06:24:42.475Z,43.97
2023-03-22T06:27:27.499Z,48.58
2023-03-22T06:30:12.396Z,50.63
2023-03-22T06:33:13.388Z,55.38
2023-03-22T06:39:21.568Z,43.45
2023-03-22T06:42:02.585Z,44.40
2023-03-22T06:44:50.322Z,40.03
2023-03-22T06:47:51.567Z,47.05
2023-03-22T06:50:44.448Z,37.03
2023-03-22T06:53:29.147Z,37.95
2023-03-22T06:59:08.042Z,27.02
2023-03-22T07:01:48.382Z,29.00
2023-03-22T07:04:37.754Z,27.48
2023-03-22T07:07:19.366Z,26.35
2023-03-22T07:10:05.787Z,22.17
2023-03-22T07:12:52.491Z,19.42
2023-03-22T07:15:39.521Z,21.00
2023-03-22T07:18:37.793Z,28.58
2023-03-22T07:21:23.008Z,20.83
2023-03-22T07:24:12.398Z,19.30
2023-03-22T07:29:45.691Z,15.93
2023-03-22T07:32:33.957Z,20.77
2023-03-22T07:35:19.181Z,17.95
2023-03-22T07:38:05.363Z,15.68
2023-03-22T07:40:59.561Z,12.88
2023-03-22T07:44:17.357Z,15.50
2023-03-22T07:47:40.017Z,17.17
2023-03-22T07:50:42.952Z,16.35
2023-03-22T07:53:23.796Z,15.45
2023-03-22T07:56:07.934Z,16.17
2023-03-22T07:58:55.023Z,14.88
2023-03-22T08:01:44.753Z,15.70
2023-03-22T08:04:51.806Z,14.20
2023-03-22T08:07:42.783Z,9.75
2023-03-22T08:10:29.252Z,10.07
2023-03-22T08:13:13.818Z,10.40
2023-03-22T08:16:08.256Z,8.70
2023-03-22T08:18:55.643Z,12.38
2023-03-22T08:21:42.325Z,8.02
2023-03-22T08:24:51.530Z,10.10
2023-03-22T08:27:53.460Z,12.73
2023-03-22T08:30:40.566Z,14.07
2023-03-22T08:33:30.044Z,10.23
2023-03-22T08:36:29.153Z,12.48
2023-03-22T08:39:14.405Z,11.63
2023-03-22T08:41:57.434Z,12.02
2023-03-22T08:45:00.327Z,10.40
2023-03-22T08:47:44.481Z,13.70
2023-03-22T08:50:31.134Z,14.13
2023-03-22T08:53:21.440Z,9.32
2023-03-22T08:56:17.160Z,9.38
2023-03-22T08:59:16.906Z,10.10
2023-03-22T09:02:17.242Z,10.52
2023-03-22T09:05:06.304Z,10.70
2023-03-22T09:08:18.263Z,13.55
2023-03-22T09:11:04.410Z,11.38
2023-03-22T09:13:51.154Z,12.63
2023-03-22T09:16:45.764Z,11.45
2023-03-22T09:19:29.640Z,10.52
2023-03-22T09:22:25.633Z,19.15
2023-03-22T09:25:12.977Z,13.10
2023-03-22T09:28:04.228Z,12.25
2023-03-22T09:30:41.538Z,11.75
2023-03-22T09:33:32.111Z,12.65
2023-03-22T09:36:20.357Z,13.75
2023-03-22T09:39:12.588Z,13.75
2023-03-22T09:42:06.357Z,13.90
2023-03-22T09:45:09.689Z,18.35
2023-03-22T09:48:05.793Z,13.10
2023-03-22T09:50:47.107Z,13.85
2023-03-22T09:53:34.446Z,14.43
2023-03-22T09:56:38.977Z,13.05
2023-03-22T09:59:28.197Z,14.15
2023-03-22T10:02:28.467Z,16.88
2023-03-22T10:05:25.995Z,14.40
2023-03-22T10:08:34.499Z,14.73
2023-03-22T10:11:38.327Z,11.77
2023-03-22T10:14:55.527Z,22.55
2023-03-22T10:17:42.738Z,17.85
2023-03-22T10:20:47.833Z,14.18
2023-03-22T10:23:50.660Z,14.07
2023-03-22T10:26:51.727Z,16.98
2023-03-22T10:29:46.392Z,15.27
2023-03-22T10:32:56.689Z,18.13
2023-03-22T10:35:42.307Z,16.42
2023-03-22T10:38:26.577Z,16.30
2023-03-22T10:44:04.313Z,14.88
2023-03-22T10:46:47.970Z,18.13
2023-03-22T10:49:35.442Z,21.92
2023-03-22T10:52:40.318Z,21.65
2023-03-22T10:55:26.527Z,20.67
2023-03-22T10:58:30.098Z,19.40
2023-03-22T11:01:41.948Z,18.13
2023-03-22T11:04:45.031Z,16.98
2023-03-22T11:08:06.930Z,16.98
2023-03-22T11:10:58.114Z,18.05
2023-03-22T11:13:44.207Z,14.67
2023-03-22T11:16:30.702Z,14.98
2023-03-22T11:19:40.661Z,11.75
2023-03-22T11:22:44.095Z,10.95
2023-03-22T11:25:43.005Z,14.80
2023-03-22T11:28:59.079Z,10.18
2023-03-22T11:31:59.097Z,15.00
2023-03-22T11:34:43.472Z,12.00
2023-03-22T11:37:40.175Z,11.68
2023-03-22T11:40:34.947Z,14.82
2023-03-22T11:43:25.248Z,9.95
2023-03-22T11:46:12.389Z,12.35
2023-03-22T11:49:00.974Z,10.73
2023-03-22T11:51:54.313Z,17.95
2023-03-22T11:54:48.966Z,12.55
2023-03-22T11:57:37.990Z,10.80
2023-03-22T12:00:26.786Z,9.02
2023-03-22T12:03:19.485Z,8.52
2023-03-22T12:06:30.631Z,13.02
2023-03-22T12:09:46.273Z,11.45
2023-03-22T12:12:43.222Z,11.85
2023-03-22T12:15:49.165Z,9.48
2023-03-22T12:18:36.622Z,13.10
2023-03-22T12:21:19.381Z,10.60
2023-03-22T12:24:06.400Z,7.97
2023-03-22T12:26:57.644Z,8.40
2023-03-22T12:29:52.856Z,14.18
2023-03-22T12:32:44.131Z,12.43
2023-03-22T12:35:34.506Z,10.20
2023-03-22T12:38:36.104Z,11.45
2023-03-22T12:41:41.190Z,12.18
2023-03-22T12:44:43.392Z,8.35
2023-03-22T12:47:47.456Z,11.60
2023-03-22T12:50:42.909Z,10.35
2023-03-22T12:53:31.344Z,11.82
2023-03-22T12:56:18.422Z,10.10
2023-03-22T12:59:08.325Z,16.73
2023-03-22T13:02:19.757Z,7.50
2023-03-22T13:05:06.975Z,10.43
2023-03-22T13:08:08.054Z,9.30
2023-03-22T13:11:01.334Z,9.75
2023-03-22T13:14:20.200Z,11.00
2023-03-22T13:17:04.611Z,7.15
2023-03-22T13:20:11.056Z,8.80
2023-03-22T13:23:08.960Z,15.53
2023-03-22T13:26:08.047Z,9.90
2023-03-22T13:31:49.394Z,10.75
2023-03-22T13:34:44.959Z,14.75
2023-03-22T13:38:13.732Z,6.85
2023-03-22T13:41:22.281Z,9.52
2023-03-22T13:44:24.313Z,8.50
2023-03-22T13:47:35.843Z,7.28
2023-03-22T13:50:36.346Z,13.88
2023-03-22T13:53:28.007Z,9.13
2023-03-22T13:56:09.093Z,8.00
2023-03-22T13:59:07.068Z,12.23
2023-03-22T14:02:04.377Z,6.93
2023-03-22T14:05:17.316Z,9.13
2023-03-22T14:08:21.981Z,7.22
2023-03-22T14:11:20.245Z,7.65
2023-03-22T14:14:13.315Z,12.50
2023-03-22T14:17:18.136Z,16.58
2023-03-22T14:20:05.358Z,15.70
